createdAt,value
2022-08-28T00:01:01.484Z,3.63
2022-08-28T00:03:28.861Z,3.15
2022-08-28T00:05:57.425Z,2.40
2022-08-28T00:08:24.425Z,3.08
2022-08-28T00:10:51.480Z,3.22
2022-08-28T00:13:21.546Z,2.95
2022-08-28T00:15:54.720Z,2.72
2022-08-28T00:18:22.748Z,3.53
2022-08-28T00:20:51.451Z,3.58
2022-08-28T00:23:19.845Z,3.83
2022-08-28T00:25:46.910Z,2.95
2022-08-28T00:28:23.486Z,3.90
2022-08-28T00:30:55.055Z,3.53
2022-08-28T00:33:25.240Z,4.43
2022-08-28T00:35:53.432Z,4.32
2022-08-28T00:38:23.219Z,3.05
2022-08-28T00:40:57.549Z,3.35
2022-08-28T00:43:38.491Z,3.10
2022-08-28T00:46:18.727Z,2.70
2022-08-28T00:48:46.138Z,2.83
2022-08-28T00:51:33.472Z,2.60
2022-08-28T00:54:04.272Z,2.95
2022-08-28T00:56:35.143Z,3.25
2022-08-28T00:59:15.049Z,2.60
2022-08-28T01:01:43.859Z,2.88
2022-08-28T01:04:17.150Z,2.63
2022-08-28T01:06:48.560Z,3.70
2022-08-28T01:09:15.719Z,3.08
2022-08-28T01:11:53.380Z,2.80
2022-08-28T01:14:23.173Z,4.07
2022-08-28T01:16:55.549Z,3.60
2022-08-28T01:19:32.918Z,3.33
2022-08-28T01:22:27.415Z,2.72
2022-08-28T01:24:58.638Z,2.63
2022-08-28T01:27:25.517Z,3.33
2022-08-28T01:29:52.771Z,2.80
2022-08-28T01:32:40.950Z,2.80
2022-08-28T01:35:13.733Z,3.03
2022-08-28T01:37:41.311Z,2.97
2022-08-28T01:40:12.118Z,3.50
2022-08-28T01:42:42.292Z,3.28
2022-08-28T01:45:16.213Z,2.63
2022-08-28T01:47:45.311Z,2.88
2022-08-28T01:50:18.973Z,3.30
2022-08-28T01:52:46.439Z,2.70
2022-08-28T01:55:14.098Z,3.03
2022-08-28T01:57:49.906Z,3.20
2022-08-28T02:00:17.816Z,2.63
2022-08-28T02:02:44.708Z,2.40
2022-08-28T02:05:12.036Z,2.78
2022-08-28T02:07:39.273Z,2.97
2022-08-28T02:10:10.106Z,2.78
2022-08-28T02:12:37.077Z,3.03
2022-08-28T02:15:08.334Z,2.45
2022-08-28T02:17:35.545Z,3.58
2022-08-28T02:20:03.172Z,3.30
2022-08-28T02:22:30.105Z,2.50
2022-08-28T02:24:57.027Z,2.80
2022-08-28T02:27:24.265Z,2.70
2022-08-28T02:29:51.389Z,3.03
2022-08-28T02:32:18.554Z,2.40
2022-08-28T02:34:45.507Z,3.03
2022-08-28T02:37:13.602Z,2.67
2022-08-28T02:39:40.949Z,2.80
2022-08-28T02:42:08.015Z,2.88
2022-08-28T02:44:35.663Z,2.20
2022-08-28T02:47:03.389Z,2.70
2022-08-28T02:49:36.155Z,3.08
2022-08-28T02:52:04.202Z,2.50
2022-08-28T02:54:31.226Z,2.88
2022-08-28T02:56:58.705Z,1.83
2022-08-28T02:59:25.866Z,2.63
2022-08-28T03:01:53.644Z,2.90
2022-08-28T03:04:20.596Z,3.08
2022-08-28T03:06:47.628Z,2.42
2022-08-28T03:09:16.097Z,2.85
2022-08-28T03:11:43.040Z,2.47
2022-08-28T03:14:09.947Z,2.70
2022-08-28T03:16:36.933Z,2.80
2022-08-28T03:19:04.038Z,2.72
2022-08-28T03:21:30.920Z,2.40
2022-08-28T03:23:58.106Z,2.60
2022-08-28T03:26:25.180Z,2.40
2022-08-28T03:28:53.851Z,2.08
2022-08-28T03:31:24.948Z,2.50
2022-08-28T03:33:53.445Z,2.58
2022-08-28T03:36:25.233Z,2.60
2022-08-28T03:38:54.420Z,2.50
2022-08-28T03:41:24.953Z,2.78
2022-08-28T03:43:51.909Z,2.17
2022-08-28T03:46:23.673Z,2.78
2022-08-28T03:48:51.935Z,3.22
2022-08-28T03:51:29.441Z,2.78
2022-08-28T03:54:01.049Z,2.50
2022-08-28T03:56:30.202Z,2.20
2022-08-28T03:59:01.869Z,2.40
2022-08-28T04:01:29.354Z,2.55
2022-08-28T04:03:56.954Z,2.95
2022-08-28T04:06:24.239Z,2.13
2022-08-28T04:08:51.363Z,2.60
2022-08-28T04:11:18.596Z,1.90
2022-08-28T04:13:46.104Z,2.50
2022-08-28T04:16:19.122Z,2.33
2022-08-28T04:18:48.630Z,2.92
2022-08-28T04:21:23.725Z,2.40
2022-08-28T04:23:51.070Z,3.47
2022-08-28T04:26:23.799Z,2.20
2022-08-28T04:28:52.628Z,2.30
2022-08-28T04:31:31.716Z,2.60
2022-08-28T04:34:06.277Z,2.92
2022-08-28T04:36:36.523Z,2.33
2022-08-28T04:39:08.431Z,2.35
2022-08-28T04:41:38.565Z,2.00
2022-08-28T04:44:06.666Z,2.10
2022-08-28T04:46:33.701Z,2.13
2022-08-28T04:49:01.224Z,2.78
2022-08-28T04:51:29.094Z,2.30
2022-08-28T04:53:57.361Z,2.10
2022-08-28T04:56:25.112Z,1.77
2022-08-28T04:58:52.042Z,1.70
2022-08-28T05:01:27.131Z,2.42
2022-08-28T05:03:58.942Z,2.00
2022-08-28T05:06:28.287Z,2.30
2022-08-28T05:08:57.830Z,1.88
2022-08-28T05:11:33.641Z,2.25
2022-08-28T05:14:04.871Z,2.22
2022-08-28T05:16:34.685Z,2.95
2022-08-28T05:19:03.511Z,1.85
2022-08-28T05:21:30.546Z,2.30
2022-08-28T05:23:59.308Z,2.00
2022-08-28T05:26:28.303Z,2.00
2022-08-28T05:28:58.165Z,2.20
2022-08-28T05:31:26.948Z,2.13
2022-08-28T05:33:54.485Z,2.20
2022-08-28T05:36:25.867Z,2.63
2022-08-28T05:39:04.505Z,1.95
2022-08-28T05:41:33.032Z,2.42
2022-08-28T05:44:05.010Z,2.00
2022-08-28T05:46:32.807Z,1.83
2022-08-28T05:49:00.565Z,2.20
2022-08-28T05:51:28.559Z,2.60
2022-08-28T05:53:57.748Z,2.40
2022-08-28T05:56:32.746Z,2.35
2022-08-28T05:59:01.247Z,2.50
2022-08-28T06:01:32.135Z,2.35
2022-08-28T06:04:18.076Z,1.98
2022-08-28T06:06:45.783Z,2.08
2022-08-28T06:09:22.457Z,2.22
2022-08-28T06:11:55.385Z,2.03
2022-08-28T06:14:24.575Z,2.28
2022-08-28T06:16:55.835Z,2.85
2022-08-28T06:19:25.547Z,2.47
2022-08-28T06:21:58.390Z,2.13
2022-08-28T06:24:28.006Z,2.45
2022-08-28T06:26:58.080Z,2.22
2022-08-28T06:29:27.522Z,2.75
2022-08-28T06:31:58.131Z,2.28
2022-08-28T06:34:26.843Z,2.30
2022-08-28T06:36:54.550Z,2.22
2022-08-28T06:39:22.572Z,2.10
2022-08-28T06:41:49.970Z,1.90
2022-08-28T06:44:20.469Z,2.70
2022-08-28T06:46:52.177Z,2.42
2022-08-28T06:49:19.312Z,2.55
2022-08-28T06:51:46.424Z,2.00
2022-08-28T06:54:19.664Z,3.45
2022-08-28T06:59:16.456Z,1.70
2022-08-28T07:01:43.660Z,2.55
2022-08-28T07:04:13.700Z,2.22
2022-08-28T07:06:46.910Z,1.73
2022-08-28T07:09:14.236Z,1.85
2022-08-28T07:11:44.354Z,1.58
2022-08-28T07:14:11.263Z,1.65
2022-08-28T07:16:39.824Z,1.75
2022-08-28T07:19:09.975Z,1.23
2022-08-28T07:21:40.373Z,2.05
2022-08-28T07:24:08.832Z,1.42
2022-08-28T07:26:36.605Z,2.63
2022-08-28T07:29:09.834Z,1.55
2022-08-28T07:31:42.029Z,1.40
2022-08-28T07:34:11.215Z,1.25
2022-08-28T07:36:39.080Z,1.15
2022-08-28T07:39:07.346Z,1.58
2022-08-28T07:41:39.773Z,0.77
2022-08-28T07:44:27.840Z,1.48
2022-08-28T07:47:04.392Z,1.48
2022-08-28T07:49:33.829Z,1.90
2022-08-28T07:52:01.880Z,1.27
2022-08-28T07:54:29.175Z,0.95
2022-08-28T07:56:56.170Z,2.03
2022-08-28T07:59:23.688Z,0.90
2022-08-28T08:01:52.306Z,1.80
2022-08-28T08:04:21.521Z,1.27
2022-08-28T08:06:53.242Z,2.13
2022-08-28T08:09:22.760Z,0.95
2022-08-28T08:11:50.248Z,1.23
2022-08-28T08:14:18.249Z,1.40
2022-08-28T08:16:47.453Z,1.20
2022-08-28T08:19:16.008Z,1.10
2022-08-28T08:21:46.328Z,1.15
2022-08-28T08:24:21.278Z,1.60
2022-08-28T08:26:58.892Z,1.60
2022-08-28T08:29:32.950Z,1.10
2022-08-28T08:32:06.182Z,1.25
2022-08-28T08:34:40.124Z,0.95
2022-08-28T08:37:07.720Z,0.85
2022-08-28T08:39:37.607Z,0.70
2022-08-28T08:42:18.631Z,1.42
2022-08-28T08:44:48.199Z,1.20
2022-08-28T08:47:44.645Z,1.00
2022-08-28T08:50:28.347Z,0.70
2022-08-28T08:53:20.334Z,0.93
2022-08-28T08:55:53.319Z,1.02
2022-08-28T08:58:45.968Z,0.82
2022-08-28T09:01:23.887Z,0.98
2022-08-28T09:04:06.066Z,0.70
2022-08-28T09:06:52.907Z,1.58
2022-08-28T09:09:42.143Z,0.90
2022-08-28T09:12:20.102Z,1.00
2022-08-28T09:15:13.670Z,0.70
2022-08-28T09:17:51.611Z,1.30
2022-08-28T09:20:32.540Z,1.27
2022-08-28T09:23:02.131Z,0.90
2022-08-28T09:26:02.785Z,0.80
2022-08-28T09:28:38.882Z,0.70
2022-08-28T09:31:19.952Z,0.60
2022-08-28T09:33:52.580Z,0.90
2022-08-28T09:36:28.025Z,0.80
2022-08-28T09:39:12.938Z,1.35
2022-08-28T09:42:39.978Z,0.93
2022-08-28T09:45:21.088Z,0.73
2022-08-28T09:47:52.510Z,0.80
2022-08-28T09:50:43.606Z,0.68
2022-08-28T09:53:10.582Z,0.60
2022-08-28T09:55:51.556Z,0.85
2022-08-28T09:58:21.525Z,0.70
2022-08-28T10:00:57.103Z,0.93
2022-08-28T10:03:51.843Z,0.73
2022-08-28T10:06:28.265Z,0.77
2022-08-28T10:09:26.510Z,1.00
2022-08-28T10:12:50.434Z,0.80
2022-08-28T10:15:45.564Z,1.08
2022-08-28T10:18:32.041Z,0.73
2022-08-28T10:21:14.602Z,1.00
2022-08-28T10:24:24.727Z,1.05
2022-08-28T10:27:06.580Z,0.55
2022-08-28T10:30:09.973Z,1.88
2022-08-28T10:34:05.089Z,0.90
2022-08-28T10:36:35.386Z,0.70
2022-08-28T10:39:20.678Z,1.13
2022-08-28T10:41:59.897Z,1.10
2022-08-28T10:44:55.186Z,1.00
2022-08-28T10:47:23.848Z,0.75
2022-08-28T10:49:58.552Z,0.57
2022-08-28T10:52:48.944Z,0.50
2022-08-28T10:55:50.782Z,0.55
2022-08-28T10:58:21.587Z,0.73
2022-08-28T11:01:06.456Z,1.23
2022-08-28T11:03:44.910Z,0.93
2022-08-28T11:06:27.168Z,0.95
2022-08-28T11:08:59.297Z,0.90
2022-08-28T11:12:02.281Z,1.05
2022-08-28T11:14:47.929Z,1.08
2022-08-28T11:17:25.344Z,0.93
2022-08-28T11:20:37.315Z,1.30
2022-08-28T11:23:21.090Z,0.63
2022-08-28T11:25:59.685Z,0.70
2022-08-28T11:28:36.361Z,1.00
2022-08-28T11:31:06.417Z,0.80
2022-08-28T11:33:50.799Z,0.90
2022-08-28T11:36:20.488Z,0.80
2022-08-28T11:38:53.566Z,0.73
2022-08-28T11:41:39.648Z,0.63
2022-08-28T11:44:09.279Z,1.10
2022-08-28T11:46:40.716Z,0.75
2022-08-28T11:49:29.135Z,0.55
2022-08-28T11:52:56.687Z,1.20
2022-08-28T11:55:50.955Z,0.63
2022-08-28T11:58:34.825Z,1.13
2022-08-28T12:01:10.829Z,1.10
2022-08-28T12:04:08.456Z,0.70
2022-08-28T12:07:12.434Z,0.80
2022-08-28T12:09:46.243Z,0.60
2022-08-28T12:12:22.140Z,1.15
2022-08-28T12:14:55.188Z,0.70
2022-08-28T12:17:22.197Z,0.90
2022-08-28T12:20:10.438Z,1.45
2022-08-28T12:22:57.662Z,0.75
2022-08-28T12:25:42.479Z,0.63
2022-08-28T12:28:53.472Z,1.77
2022-08-28T12:31:49.795Z,0.65
2022-08-28T12:34:57.952Z,0.73
2022-08-28T12:38:10.150Z,0.52
2022-08-28T12:40:40.381Z,1.02
2022-08-28T12:43:15.475Z,0.80
2022-08-28T12:46:00.508Z,0.70
2022-08-28T12:48:54.434Z,0.57
2022-08-28T12:51:31.820Z,0.60
2022-08-28T12:54:06.254Z,0.57
2022-08-28T12:56:37.200Z,0.60
2022-08-28T12:59:38.765Z,0.60
2022-08-28T13:02:17.590Z,0.70
2022-08-28T13:05:08.263Z,0.88
2022-08-28T13:07:49.478Z,1.33
2022-08-28T13:10:24.017Z,0.63
2022-08-28T13:13:07.845Z,0.60
2022-08-28T13:15:55.512Z,0.77
2022-08-28T13:18:51.329Z,0.75
2022-08-28T13:21:30.819Z,0.77
2022-08-28T13:24:27.433Z,1.15
2022-08-28T13:27:07.340Z,0.80
2022-08-28T13:29:35.829Z,0.70
2022-08-28T13:32:08.308Z,1.48
2022-08-28T13:34:38.050Z,1.45
2022-08-28T13:37:19.792Z,0.90
2022-08-28T13:39:47.471Z,0.90
2022-08-28T13:42:17.987Z,0.77
2022-08-28T13:44:54.148Z,0.90
2022-08-28T13:47:21.073Z,0.65
2022-08-28T13:49:48.080Z,0.65
2022-08-28T13:52:15.485Z,0.95
2022-08-28T13:54:43.635Z,0.77
2022-08-28T13:57:13.732Z,0.73
2022-08-28T13:59:41.725Z,0.70
2022-08-28T14:02:31.357Z,0.60
2022-08-28T14:04:58.770Z,0.85
2022-08-28T14:07:25.750Z,0.68
2022-08-28T14:09:56.205Z,0.80
2022-08-28T14:12:27.770Z,0.60
2022-08-28T14:14:59.696Z,0.98
2022-08-28T14:17:26.673Z,0.80
2022-08-28T14:19:54.170Z,0.90
2022-08-28T14:22:21.126Z,0.90
2022-08-28T14:24:48.587Z,0.65
2022-08-28T14:27:15.523Z,1.42
2022-08-28T14:29:42.813Z,1.10
2022-08-28T14:32:09.897Z,0.80
2022-08-28T14:34:38.225Z,0.60
2022-08-28T14:37:06.291Z,0.93
2022-08-28T14:39:33.644Z,1.73
2022-08-28T14:42:01.078Z,1.15
2022-08-28T14:44:27.970Z,1.05
2022-08-28T14:46:57.260Z,0.90
2022-08-28T14:49:26.664Z,0.77
2022-08-28T14:51:55.084Z,0.80
2022-08-28T14:54:25.079Z,0.80
2022-08-28T14:57:05.939Z,1.05
2022-08-28T14:59:34.318Z,0.73
2022-08-28T15:02:02.073Z,1.00
2022-08-28T15:04:34.786Z,0.60
2022-08-28T15:07:06.471Z,0.73
2022-08-28T15:09:38.376Z,1.25
2022-08-28T15:12:06.840Z,1.15
2022-08-28T15:14:34.975Z,0.57
2022-08-28T15:17:02.637Z,0.88
2022-08-28T15:19:30.175Z,0.75
2022-08-28T15:21:58.682Z,0.70
2022-08-28T15:24:31.189Z,0.80
2022-08-28T15:26:59.775Z,0.75
2022-08-28T15:29:30.222Z,1.08
2022-08-28T15:31:58.516Z,0.90
2022-08-28T15:34:28.490Z,0.70
2022-08-28T15:36:57.415Z,0.60
2022-08-28T15:39:45.354Z,0.90
2022-08-28T15:42:13.668Z,0.80
2022-08-28T15:44:41.341Z,0.90
2022-08-28T15:47:08.757Z,0.70
2022-08-28T15:49:43.433Z,0.95
2022-08-28T15:52:13.897Z,1.55
2022-08-28T15:54:42.241Z,0.90
2022-08-28T15:57:09.969Z,0.90
2022-08-28T15:59:49.015Z,0.90
2022-08-28T16:02:23.231Z,0.82
2022-08-28T16:04:51.243Z,1.67
2022-08-28T16:07:21.258Z,0.60
2022-08-28T16:09:49.716Z,0.95
2022-08-28T16:12:17.388Z,1.27
2022-08-28T16:14:44.639Z,0.88
2022-08-28T16:17:11.982Z,1.15
2022-08-28T16:19:40.916Z,0.88
2022-08-28T16:22:12.350Z,0.80
2022-08-28T16:24:39.857Z,0.70
2022-08-28T16:27:10.685Z,0.70
2022-08-28T16:29:41.823Z,0.90
2022-08-28T16:32:11.628Z,0.77
2022-08-28T16:34:39.898Z,0.90
2022-08-28T16:37:07.966Z,0.70
2022-08-28T16:39:35.826Z,0.75
2022-08-28T16:42:03.075Z,0.80
2022-08-28T16:44:30.093Z,0.70
2022-08-28T16:46:57.265Z,0.70
2022-08-28T16:49:24.771Z,0.60
2022-08-28T16:51:52.257Z,0.80
2022-08-28T16:54:21.699Z,1.10
2022-08-28T16:56:53.590Z,0.75
2022-08-28T16:59:24.115Z,1.00
2022-08-28T17:01:53.893Z,0.75
2022-08-28T17:04:22.320Z,0.55
2022-08-28T17:06:49.856Z,0.60
2022-08-28T17:09:16.833Z,0.70
2022-08-28T17:11:51.644Z,0.52
2022-08-28T17:14:22.992Z,0.70
2022-08-28T17:16:51.448Z,0.57
2022-08-28T17:19:19.516Z,0.50
2022-08-28T17:22:05.402Z,0.60
2022-08-28T17:24:32.492Z,1.20
2022-08-28T17:27:05.242Z,0.52
2022-08-28T17:29:38.394Z,0.55
2022-08-28T17:32:07.829Z,0.60
2022-08-28T17:34:35.939Z,0.80
2022-08-28T17:37:04.524Z,0.90
2022-08-28T17:39:31.628Z,0.57
2022-08-28T17:41:58.621Z,1.30
2022-08-28T17:44:26.029Z,1.05
2022-08-28T17:46:53.068Z,0.60
2022-08-28T17:49:20.206Z,0.50
2022-08-28T17:51:47.791Z,0.90
2022-08-28T17:54:21.505Z,0.70
2022-08-28T17:56:54.028Z,1.33
2022-08-28T17:59:23.209Z,1.17
2022-08-28T18:01:50.527Z,0.50
2022-08-28T18:04:24.146Z,0.95
2022-08-28T18:06:54.614Z,0.80
2022-08-28T18:09:23.676Z,0.85
2022-08-28T18:11:51.987Z,1.25
2022-08-28T18:14:19.375Z,0.70
2022-08-28T18:16:46.925Z,1.10
2022-08-28T18:19:14.014Z,1.00
2022-08-28T18:21:41.377Z,0.93
2022-08-28T18:24:10.161Z,0.80
2022-08-28T18:26:37.112Z,0.70
2022-08-28T18:29:04.454Z,0.60
2022-08-28T18:31:31.726Z,0.90
2022-08-28T18:33:58.879Z,0.70
2022-08-28T18:36:26.002Z,1.23
2022-08-28T18:38:53.798Z,0.63
2022-08-28T18:41:21.242Z,0.73
2022-08-28T18:43:56.109Z,0.80
2022-08-28T18:46:25.303Z,0.75
2022-08-28T18:48:56.776Z,0.80
2022-08-28T18:51:23.873Z,0.93
2022-08-28T18:53:50.827Z,1.05
2022-08-28T18:56:18.610Z,1.63
2022-08-28T18:58:47.881Z,0.93
2022-08-28T19:01:16.034Z,1.30
2022-08-28T19:03:43.088Z,0.70
2022-08-28T19:06:14.991Z,0.82
2022-08-28T19:08:42.465Z,0.82
2022-08-28T19:11:12.171Z,1.00
2022-08-28T19:13:41.051Z,0.93
2022-08-28T19:16:09.083Z,1.48
2022-08-28T19:18:36.037Z,1.55
2022-08-28T19:21:09.726Z,0.70
2022-08-28T19:23:42.412Z,0.70
2022-08-28T19:26:25.146Z,0.95
2022-08-28T19:28:52.451Z,0.98
2022-08-28T19:31:19.622Z,1.30
2022-08-28T19:33:47.909Z,0.85
2022-08-28T19:36:15.251Z,1.20
2022-08-28T19:38:42.735Z,0.90
2022-08-28T19:41:12.826Z,0.98
2022-08-28T19:43:44.171Z,1.40
2022-08-28T19:46:19.345Z,1.08
2022-08-28T19:51:22.274Z,0.65
2022-08-28T19:53:57.782Z,1.08
2022-08-28T19:56:27.661Z,1.42
2022-08-28T19:58:59.223Z,0.98
2022-08-28T20:01:36.640Z,0.90
2022-08-28T20:04:06.545Z,1.00
2022-08-28T20:06:34.719Z,1.08
2022-08-28T20:09:04.337Z,0.75
2022-08-28T20:11:31.349Z,1.70
2022-08-28T20:14:05.026Z,0.70
2022-08-28T20:16:37.345Z,0.93
2022-08-28T20:19:07.927Z,1.08
2022-08-28T20:21:38.216Z,1.13
2022-08-28T20:24:09.773Z,1.23
2022-08-28T20:26:37.225Z,0.90
2022-08-28T20:29:06.169Z,1.00
2022-08-28T20:31:38.162Z,0.82
2022-08-28T20:34:05.048Z,1.10
2022-08-28T20:36:32.183Z,1.23
2022-08-28T20:38:59.083Z,1.13
2022-08-28T20:41:26.094Z,0.90
2022-08-28T20:43:53.054Z,0.93
2022-08-28T20:46:20.159Z,0.95
2022-08-28T20:48:47.375Z,1.02
2022-08-28T20:51:14.400Z,1.30
2022-08-28T20:53:41.366Z,0.93
2022-08-28T20:56:10.033Z,1.20
2022-08-28T20:58:37.892Z,1.15
2022-08-28T21:01:05.878Z,0.93
2022-08-28T21:03:33.066Z,1.20
2022-08-28T21:06:00.112Z,1.00
2022-08-28T21:08:27.063Z,0.93
2022-08-28T21:10:53.933Z,0.82
2022-08-28T21:13:21.524Z,1.00
2022-08-28T21:15:48.495Z,1.10
2022-08-28T21:18:15.942Z,1.30
2022-08-28T21:20:43.186Z,0.93
2022-08-28T21:23:10.514Z,1.00
2022-08-28T21:25:40.222Z,1.40
2022-08-28T21:28:07.356Z,1.23
2022-08-28T21:30:34.707Z,0.98
2022-08-28T21:33:01.668Z,1.50
2022-08-28T21:35:28.998Z,0.90
2022-08-28T21:37:56.056Z,1.20
2022-08-28T21:40:23.297Z,1.63
2022-08-28T21:42:50.371Z,1.27
2022-08-28T21:45:18.451Z,1.65
2022-08-28T21:47:45.372Z,1.35
2022-08-28T21:50:13.017Z,0.93
2022-08-28T21:52:40.636Z,1.30
2022-08-28T21:55:13.366Z,1.50
2022-08-28T21:57:41.080Z,1.20
2022-08-28T22:00:23.636Z,1.10
2022-08-28T22:02:51.083Z,1.65
2022-08-28T22:05:18.520Z,0.75
2022-08-28T22:07:45.700Z,1.08
2022-08-28T22:10:13.272Z,1.33
2022-08-28T22:12:40.206Z,1.23
2022-08-28T22:15:07.496Z,1.42
2022-08-28T22:17:34.439Z,1.20
2022-08-28T22:20:01.420Z,1.00
2022-08-28T22:22:46.804Z,0.98
2022-08-28T22:25:13.926Z,0.93
2022-08-28T22:27:40.822Z,1.67
2022-08-28T22:30:08.594Z,1.45
2022-08-28T22:32:35.519Z,1.10
2022-08-28T22:35:02.431Z,1.10
2022-08-28T22:37:29.542Z,1.25
2022-08-28T22:39:57.653Z,1.23
2022-08-28T22:42:24.845Z,1.02
2022-08-28T22:44:51.775Z,1.70
2022-08-28T22:47:18.877Z,1.27
2022-08-28T22:49:46.297Z,2.10
2022-08-28T22:52:13.387Z,1.40
2022-08-28T22:54:40.306Z,0.95
2022-08-28T22:57:07.694Z,1.40
2022-08-28T22:59:35.396Z,1.92
2022-08-28T23:02:03.711Z,2.05
2022-08-28T23:04:31.225Z,1.23
2022-08-28T23:06:58.245Z,1.40
2022-08-28T23:09:25.167Z,1.15
2022-08-28T23:11:52.085Z,1.15
2022-08-28T23:14:19.426Z,1.42
2022-08-28T23:16:46.810Z,1.60
2022-08-28T23:19:16.632Z,1.60
2022-08-28T23:21:44.491Z,1.20
2022-08-28T23:24:13.625Z,1.73
2022-08-28T23:26:40.990Z,1.60
2022-08-28T23:29:09.175Z,1.38
2022-08-28T23:31:37.034Z,1.15
2022-08-28T23:34:06.287Z,0.93
2022-08-28T23:36:35.334Z,1.00
2022-08-28T23:39:03.302Z,1.20
2022-08-28T23:41:31.944Z,1.38
2022-08-28T23:43:59.104Z,1.50
2022-08-28T23:46:26.224Z,1.98
2022-08-28T23:48:53.480Z,1.13
2022-08-28T23:51:22.002Z,1.15
2022-08-28T23:53:49.938Z,1.77
2022-08-28T23:56:17.008Z,1.27
2022-08-28T23:58:45.081Z,1.10
